Terminal Aerodrome Forecast
Issued by NWS

Home | Current Version | Previous Version | Graphics & Text | Print | Product List | Glossary Off
Versions: 1 2 3 4 5 6 7 8 9 10 11 12 13 14 15

000
FTUS43 KTOP 310520
TAFFOE
TAF
KFOE 310520Z 3106/0106 12006KT P6SM FEW100
     FM310900 10006KT P6SM VCTS SCT035 BKN080CB
     FM311600 15011KT P6SM SCT040 BKN100=

USA.gov is the U.S. government's official web portal to all federal, state and local government web resources and services.